Fonvind — JWYN — position and weather

sailwx.info

Track history (hours):
 
Tides and Currents Weather Stations Pressure Air Temp Water Temp Dewpoint Dewpoint Depression Visibility Wind Speed Wind Dir Waves Ship Positions

Fonvind

Last reported at 2017-Aug-17 09:30 UTC. Time now 2017-Aug-17 09:35 UTC.
Position N 65°54' E 012°13'.

Length 34 m; draft 3.5 m.

Type: Cargo ship. MMSI: 257322400.

Date/timePositionNaut miles runAvg speedWind from/ knotsBaromVisibWave heightAir tempDewpointWater temp
2017-Aug-17 09:30N 65°54' E 012°13'0 0.0
2017-Aug-17 09:00N 65°54' E 012°13'0 0.0
2017-Aug-17 08:30N 65°54' E 012°13'0 0.0
2017-Aug-17 08:00N 65°54' E 012°13'0 0.0
2017-Aug-17 07:30N 65°54' E 012°13'0 0.0
2017-Aug-17 07:00N 65°54' E 012°13'0 0.0
2017-Aug-17 06:29N 65°54' E 012°13'0 0.0
2017-Aug-17 06:00N 65°54' E 012°13'0 0.0
2017-Aug-17 05:30N 65°54' E 012°13'0 0.0
2017-Aug-17 05:00N 65°54' E 012°13'0 0.0
2017-Aug-17 04:30N 65°54' E 012°13'0 0.0
2017-Aug-17 04:00N 65°54' E 012°13'0 0.0
2017-Aug-17 03:30N 65°54' E 012°13'0 0.0
2017-Aug-17 03:00N 65°54' E 012°13'0 0.0
2017-Aug-17 02:30N 65°54' E 012°13'0 0.0
2017-Aug-17 02:00N 65°54' E 012°13'0 0.0
2017-Aug-17 01:30N 65°54' E 012°13'0 0.0
2017-Aug-17 01:00N 65°54' E 012°13'0 0.0
2017-Aug-17 00:29N 65°54' E 012°13'0 0.0
2017-Aug-17 00:00N 65°54' E 012°13'0 0.0
2017-Aug-16 23:30N 65°54' E 012°13'0 0.0
2017-Aug-16 22:59N 65°54' E 012°13'0 0.0
2017-Aug-16 22:30N 65°54' E 012°13'0 0.0
2017-Aug-16 22:00N 65°54' E 012°13'0 0.0
2017-Aug-16 21:30N 65°54' E 012°13'0 0.0
2017-Aug-16 21:00N 65°54' E 012°13'0 0.0
2017-Aug-16 20:30N 65°54' E 012°13'0 0.0
2017-Aug-16 20:00N 65°54' E 012°13'0 0.0
2017-Aug-16 19:30N 65°54' E 012°13'0 0.0
2017-Aug-16 19:00N 65°54' E 012°13'0 0.0
2017-Aug-16 18:30N 65°54' E 012°13'0 0.0
2017-Aug-16 18:00N 65°54' E 012°13'0 0.0
2017-Aug-16 17:30N 65°54' E 012°13'0 0.0
2017-Aug-16 17:00N 65°54' E 012°13'0 0.0
2017-Aug-16 16:30N 65°54' E 012°13'0 0.0
2017-Aug-16 16:00N 65°54' E 012°13'0 0.1
2017-Aug-16 15:30N 65°55' E 012°13'0 0.0
2017-Aug-16 15:00N 65°55' E 012°13'0 0.0
2017-Aug-16 14:30N 65°55' E 012°13'0 0.0
2017-Aug-16 14:00N 65°54' E 012°13'0 0.1
2017-Aug-16 13:30N 65°55' E 012°13'0 0.1
2017-Aug-16 13:00N 65°55' E 012°13'0 0.0
2017-Aug-16 12:30N 65°55' E 012°13'0 0.0
2017-Aug-16 12:00N 65°55' E 012°13'0 0.0
2017-Aug-16 11:30N 65°55' E 012°13'0 0.1
2017-Aug-16 11:00N 65°55' E 012°13'4 8.4
2017-Aug-16 10:30N 65°56' E 012°23'510.1
2017-Aug-16 09:58N 65°51' E 012°22'5 9.8
2017-Aug-16 09:30N 65°47' E 012°19'5 9.9
2017-Aug-16 09:00N 65°42' E 012°17'5 9.6
2017-Aug-16 08:30N 65°37' E 012°19'510.3
2017-Aug-16 08:00N 65°32' E 012°24'  
2017-Aug-14 02:59N 65°31' E 012°33'0 0.0
2017-Aug-14 02:30N 65°31' E 012°33'0 0.0
2017-Aug-14 02:00N 65°31' E 012°33'0 0.0
2017-Aug-14 01:30N 65°31' E 012°33'0 0.0
2017-Aug-14 01:00N 65°31' E 012°33'0 0.0
2017-Aug-14 00:30N 65°31' E 012°33'0 0.0
2017-Aug-14 00:00N 65°31' E 012°33'0 0.0
2017-Aug-13 23:30N 65°31' E 012°33'0 0.0
2017-Aug-13 23:00N 65°31' E 012°33'0 0.0
2017-Aug-13 22:30N 65°31' E 012°33'0 0.0
2017-Aug-13 22:00N 65°31' E 012°33'0 0.0
2017-Aug-13 21:30N 65°31' E 012°33'0 0.0
2017-Aug-13 21:00N 65°31' E 012°33'0 0.0
2017-Aug-13 20:30N 65°31' E 012°33'0 0.0
2017-Aug-13 20:00N 65°31' E 012°33'0 0.0
2017-Aug-13 19:30N 65°31' E 012°33'0 0.0
2017-Aug-13 19:00N 65°31' E 012°33'0 0.0
2017-Aug-13 18:30N 65°31' E 012°33'0 0.0
2017-Aug-13 18:00N 65°31' E 012°33'0 0.0
2017-Aug-13 17:30N 65°31' E 012°33'0 0.0
2017-Aug-13 17:00N 65°31' E 012°33'4 7.6
2017-Aug-13 16:30N 65°28' E 012°32'1 2.0
2017-Aug-13 16:00N 65°27' E 012°34'0 0.0
2017-Aug-13 15:30N 65°27' E 012°34'0 0.0
2017-Aug-13 15:00N 65°27' E 012°34'0 0.0
2017-Aug-13 14:30N 65°27' E 012°34'0 0.0
2017-Aug-13 14:00N 65°27' E 012°34'0 0.1
2017-Aug-13 13:29N 65°27' E 012°34'0 0.0
2017-Aug-13 13:00N 65°27' E 012°34'0 0.0
2017-Aug-13 12:30N 65°27' E 012°34'0 0.0
2017-Aug-13 12:00N 65°27' E 012°34'0 0.1
2017-Aug-13 11:30N 65°27' E 012°34'0 0.0
2017-Aug-13 11:00N 65°27' E 012°34'0 0.0
2017-Aug-13 10:30N 65°27' E 012°34'0 0.0
2017-Aug-13 10:00N 65°27' E 012°34'0 0.0
2017-Aug-13 09:30N 65°27' E 012°34'0 0.1
2017-Aug-13 09:00N 65°27' E 012°34'0 0.0
2017-Aug-13 08:30N 65°27' E 012°34'0 0.0
2017-Aug-13 08:00N 65°27' E 012°34'0 0.0
2017-Aug-13 07:30N 65°27' E 012°34'0 0.1
2017-Aug-13 07:00N 65°27' E 012°34'0 0.0
2017-Aug-13 06:30N 65°27' E 012°34'0 0.0
2017-Aug-13 06:00N 65°27' E 012°34'0 0.0
2017-Aug-13 05:30N 65°27' E 012°34'0 0.0
2017-Aug-13 05:00N 65°27' E 012°34'0 0.0
2017-Aug-13 04:30N 65°27' E 012°34'0 0.0
2017-Aug-13 04:00N 65°27' E 012°34'0 0.0
2017-Aug-13 03:30N 65°27' E 012°34'0 0.0
2017-Aug-13 02:59N 65°27' E 012°34'0 0.0
2017-Aug-13 02:30N 65°27' E 012°34'0 0.0
2017-Aug-13 02:00N 65°27' E 012°34'0 0.0
2017-Aug-13 01:30N 65°27' E 012°34'0 0.0
2017-Aug-13 01:00N 65°27' E 012°34'0 0.0
2017-Aug-13 00:30N 65°27' E 012°34'0 0.0
2017-Aug-13 00:00N 65°27' E 012°34'0 0.0
2017-Aug-12 23:30N 65°27' E 012°34'0 0.0
2017-Aug-12 23:00N 65°27' E 012°34'0 0.0
2017-Aug-12 22:29N 65°27' E 012°34'0 0.0
2017-Aug-12 22:00N 65°27' E 012°34'0 0.0
2017-Aug-12 21:30N 65°27' E 012°34'0 0.0
2017-Aug-12 21:00N 65°27' E 012°34'0 0.0
2017-Aug-12 20:30N 65°27' E 012°34'0 0.0
2017-Aug-12 20:00N 65°27' E 012°34'0 0.0
2017-Aug-12 19:30N 65°27' E 012°34'0 0.0
2017-Aug-12 18:59N 65°27' E 012°34'0 0.0
2017-Aug-12 18:30N 65°27' E 012°34'0 0.0
2017-Aug-12 18:00N 65°27' E 012°34'0 0.0
2017-Aug-12 17:30N 65°27' E 012°34'0 0.1
2017-Aug-12 17:00N 65°27' E 012°34'0 0.0
2017-Aug-12 16:30N 65°27' E 012°34'0 0.0
2017-Aug-12 16:00N 65°27' E 012°34'0 0.0
2017-Aug-12 15:30N 65°27' E 012°34'0 0.0
2017-Aug-12 15:00N 65°27' E 012°34'0 0.0
2017-Aug-12 14:29N 65°27' E 012°34'0 0.1
2017-Aug-12 14:00N 65°27' E 012°33'0 0.0
2017-Aug-12 13:30N 65°27' E 012°33'0 0.0
2017-Aug-12 13:00N 65°27' E 012°33'0 0.0
2017-Aug-12 12:30N 65°27' E 012°33'0 0.1
2017-Aug-12 12:00N 65°27' E 012°34'0 0.0
2017-Aug-12 11:30N 65°27' E 012°34'0 0.0
2017-Aug-12 11:00N 65°27' E 012°34'0 0.0
2017-Aug-12 10:30N 65°27' E 012°34'0 0.0
2017-Aug-12 10:00N 65°27' E 012°34'0 0.2
2017-Aug-12 09:30N 65°27' E 012°34'0 0.0
2017-Aug-12 08:59N 65°27' E 012°34'0 0.0
2017-Aug-12 08:30N 65°27' E 012°34'0 0.0
2017-Aug-12 08:00N 65°27' E 012°34'0 0.1
2017-Aug-12 07:30N 65°27' E 012°34'0 0.0
2017-Aug-12 07:00N 65°27' E 012°34'0 0.0
2017-Aug-12 06:30N 65°27' E 012°34'0 0.0
2017-Aug-12 06:00N 65°27' E 012°34'0 0.0
2017-Aug-12 05:30N 65°27' E 012°34'0 0.0
2017-Aug-12 05:00N 65°27' E 012°34'0 0.0
2017-Aug-12 04:30N 65°27' E 012°34'0 0.0
2017-Aug-12 04:00N 65°27' E 012°34'0 0.0
2017-Aug-12 03:30N 65°27' E 012°34'0 0.0
2017-Aug-12 03:00N 65°27' E 012°34'0 0.0
2017-Aug-12 02:30N 65°27' E 012°34'0 0.0
2017-Aug-12 01:59N 65°27' E 012°34'0 0.0
2017-Aug-12 01:30N 65°27' E 012°34'0 0.0
2017-Aug-12 01:00N 65°27' E 012°34'0 0.0
2017-Aug-12 00:30N 65°27' E 012°34'0 0.0
2017-Aug-12 00:00N 65°27' E 012°34'0 0.0
2017-Aug-11 23:30N 65°27' E 012°34'0 0.0
2017-Aug-11 23:00N 65°27' E 012°34'0 0.0
2017-Aug-11 22:29N 65°27' E 012°34'0 0.0
2017-Aug-11 22:00N 65°27' E 012°34'0 0.0
2017-Aug-11 21:30N 65°27' E 012°34'0 0.0
2017-Aug-11 21:00N 65°27' E 012°34'0 0.0
2017-Aug-11 20:30N 65°27' E 012°34'0 0.0
2017-Aug-11 20:00N 65°27' E 012°34'3 5.3
2017-Aug-11 19:29N 65°29' E 012°30'4 9.2
2017-Aug-11 19:00N 65°32' E 012°23'5 9.0
2017-Aug-11 18:30N 65°37' E 012°20'4 8.4
2017-Aug-11 18:00N 65°41' E 012°17'4 8.5
2017-Aug-11 17:30N 65°45' E 012°18'5 9.1
2017-Aug-11 17:00N 65°49' E 012°21'5 9.1
2017-Aug-11 16:30N 65°54' E 012°22'4 8.9
2017-Aug-11 16:00N 65°58' E 012°24'2 4.8
2017-Aug-11 15:30N 66°01' E 012°23'0 0.0
2017-Aug-11 15:00N 66°01' E 012°23'0 0.0
2017-Aug-11 14:00N 66°01' E 012°23'0 0.0
2017-Aug-11 13:30N 66°01' E 012°23'0 0.0
2017-Aug-11 13:00N 66°01' E 012°23'2 4.4
2017-Aug-11 12:30N 66°02' E 012°18'4 8.8
2017-Aug-11 11:59N 66°06' E 012°15'4 8.4
2017-Aug-11 11:30N 66°10' E 012°16'3 5.7
2017-Aug-11 11:00N 66°13' E 012°17'1 2.0
2017-Aug-11 10:30N 66°14' E 012°17'0 0.0
2017-Aug-11 10:00N 66°14' E 012°17'0 0.0
2017-Aug-11 09:30N 66°14' E 012°17'0 0.0
2017-Aug-11 09:00N 66°14' E 012°17'0 0.0
2017-Aug-11 08:30N 66°14' E 012°17'0 0.0
2017-Aug-11 08:00N 66°14' E 012°17'0 0.1
2017-Aug-11 07:30N 66°14' E 012°17'0 0.2
2017-Aug-11 07:00N 66°14' E 012°17'0 0.0
2017-Aug-11 06:30N 66°14' E 012°17'0 0.0
2017-Aug-11 06:00N 66°14' E 012°17'0 0.0
2017-Aug-11 05:29N 66°14' E 012°17'0 0.1
2017-Aug-11 05:00N 66°14' E 012°17'0 0.2
2017-Aug-11 04:30N 66°14' E 012°17'0 0.0
2017-Aug-11 04:00N 66°14' E 012°17'0 0.0
2017-Aug-11 03:30N 66°14' E 012°17'0 0.0
2017-Aug-11 03:00N 66°14' E 012°17'0 0.0
2017-Aug-11 02:30N 66°14' E 012°17'0 0.0
2017-Aug-11 02:00N 66°14' E 012°17'0 0.0
2017-Aug-11 01:30N 66°14' E 012°17'0 0.0
2017-Aug-11 01:00N 66°14' E 012°17'0 0.0
2017-Aug-11 00:30N 66°14' E 012°17'0 0.0
2017-Aug-11 00:00N 66°14' E 012°17'0 0.0
2017-Aug-10 23:30N 66°14' E 012°17'0 0.0
2017-Aug-10 23:00N 66°14' E 012°17'0 0.0
2017-Aug-10 22:30N 66°14' E 012°17'0 0.0
2017-Aug-10 22:00N 66°14' E 012°17'0 0.0
2017-Aug-10 21:30N 66°14' E 012°17'0 0.0
2017-Aug-10 21:00N 66°14' E 012°17'0 0.0
2017-Aug-10 20:30N 66°14' E 012°17'0 0.0
2017-Aug-10 20:00N 66°14' E 012°17'0 0.0
2017-Aug-10 19:30N 66°14' E 012°17'0 0.0
2017-Aug-10 19:00N 66°14' E 012°17'0 0.0
2017-Aug-10 18:30N 66°14' E 012°17'0 0.0
2017-Aug-10 17:59N 66°14' E 012°17'0 0.0
2017-Aug-10 17:30N 66°14' E 012°17'0 0.0
2017-Aug-10 17:00N 66°14' E 012°17'0 0.2
2017-Aug-10 16:30N 66°14' E 012°17'0 0.0
2017-Aug-10 16:00N 66°14' E 012°17'0 0.0
2017-Aug-10 15:30N 66°14' E 012°17'0 0.0
2017-Aug-10 15:00N 66°14' E 012°17'0 0.0
2017-Aug-10 14:30N 66°14' E 012°17'0 0.0
2017-Aug-10 13:30N 66°14' E 012°17'0 0.0
2017-Aug-10 13:00N 66°14' E 012°17'0 0.0
2017-Aug-10 12:30N 66°14' E 012°17'0 0.0
2017-Aug-10 12:00N 66°14' E 012°17'0 0.1
2017-Aug-10 11:30N 66°14' E 012°17'0 0.0
2017-Aug-10 11:00N 66°14' E 012°17'0 0.0
2017-Aug-10 10:30N 66°14' E 012°17'0 0.0
2017-Aug-10 10:00N 66°14' E 012°17'1 1.6
2017-Aug-10 09:30N 66°14' E 012°19'0 0.2
2017-Aug-10 09:00N 66°14' E 012°19'0 0.0
2017-Aug-10 08:30N 66°14' E 012°19'0 0.0
2017-Aug-10 08:00N 66°14' E 012°19'0 0.0
2017-Aug-10 07:30N 66°14' E 012°19'0 0.1
2017-Aug-10 07:00N 66°14' E 012°19'0 0.0
2017-Aug-10 06:30N 66°14' E 012°19'0 0.0
2017-Aug-10 06:00N 66°14' E 012°19'0 0.0
2017-Aug-10 05:30N 66°14' E 012°19'0 0.0
2017-Aug-10 05:00N 66°14' E 012°19'0 0.0
2017-Aug-10 04:30N 66°14' E 012°19'0 0.0
2017-Aug-10 04:00N 66°14' E 012°19'0 0.0
2017-Aug-10 03:30N 66°14' E 012°19'0 0.0
2017-Aug-10 03:00N 66°14' E 012°19'0 0.0
2017-Aug-10 02:30N 66°14' E 012°19'0 0.0
2017-Aug-10 02:00N 66°14' E 012°19'0 0.0
2017-Aug-10 01:30N 66°14' E 012°19'0 0.0
2017-Aug-10 01:00N 66°14' E 012°19'0 0.0
2017-Aug-10 00:30N 66°14' E 012°19'0 0.0
2017-Aug-10 00:00N 66°14' E 012°19'0 0.0
2017-Aug-09 23:30N 66°14' E 012°19'0 0.0
2017-Aug-09 23:00N 66°14' E 012°19'0 0.0
2017-Aug-09 22:30N 66°14' E 012°19'0 0.0
2017-Aug-09 22:00N 66°14' E 012°19'0 0.0
2017-Aug-09 21:30N 66°14' E 012°19'0 0.0
2017-Aug-09 21:00N 66°14' E 012°19'0 0.0
2017-Aug-09 20:30N 66°14' E 012°19'0 0.0
2017-Aug-09 20:00N 66°14' E 012°19'0 0.0
2017-Aug-09 19:30N 66°14' E 012°19'0 0.0
2017-Aug-09 19:00N 66°14' E 012°19'0 0.0
2017-Aug-09 18:30N 66°14' E 012°19'0 0.1
2017-Aug-09 18:00N 66°14' E 012°19'0 0.0
2017-Aug-09 17:30N 66°14' E 012°19'0 0.0
2017-Aug-09 17:00N 66°14' E 012°19'0 0.0
2017-Aug-09 16:30N 66°14' E 012°19'0 0.1
2017-Aug-09 16:00N 66°14' E 012°19'0 0.0
2017-Aug-09 15:30N 66°14' E 012°19'0 0.0
2017-Aug-09 15:00N 66°14' E 012°19'0 0.0
2017-Aug-09 14:30N 66°14' E 012°19'0 0.0
2017-Aug-09 14:00N 66°14' E 012°19'0 0.1
2017-Aug-09 13:30N 66°14' E 012°19'0 0.0
2017-Aug-09 12:59N 66°14' E 012°19'0 0.0
2017-Aug-09 12:30N 66°14' E 012°19'0 0.0
2017-Aug-09 12:00N 66°14' E 012°19'0 0.1
2017-Aug-09 11:30N 66°14' E 012°19'0 0.0
2017-Aug-09 11:00N 66°14' E 012°19'0 0.0
2017-Aug-09 10:30N 66°14' E 012°19'0 0.0
2017-Aug-09 10:00N 66°14' E 012°19'0 0.0
2017-Aug-09 09:30N 66°14' E 012°19'0 0.1
2017-Aug-09 09:00N 66°14' E 012°19'0 0.0
2017-Aug-09 08:30N 66°14' E 012°19'0 0.0
2017-Aug-09 08:00N 66°14' E 012°19'0 0.0
2017-Aug-09 07:30N 66°14' E 012°19'0 0.0
2017-Aug-09 07:00N 66°14' E 012°19'0 0.1
2017-Aug-09 06:30N 66°14' E 012°19'0 0.0
2017-Aug-09 06:00N 66°14' E 012°19'0 0.0
2017-Aug-09 05:30N 66°14' E 012°19'0 0.0
2017-Aug-09 05:00N 66°14' E 012°19'0 0.0
2017-Aug-09 04:30N 66°14' E 012°19'0 0.0
2017-Aug-09 04:00N 66°14' E 012°19'0 0.0
2017-Aug-09 03:30N 66°14' E 012°19'0 0.0
2017-Aug-09 03:00N 66°14' E 012°19'0 0.0
2017-Aug-09 02:30N 66°14' E 012°19'0 0.0
2017-Aug-09 02:00N 66°14' E 012°19'0 0.0
2017-Aug-09 01:30N 66°14' E 012°19'0 0.0
2017-Aug-09 00:59N 66°14' E 012°19'0 0.0
2017-Aug-09 00:30N 66°14' E 012°19'0 0.0
2017-Aug-09 00:00N 66°14' E 012°19'0 0.0
2017-Aug-08 23:30N 66°14' E 012°19'0 0.0
2017-Aug-08 23:00N 66°14' E 012°19'0 0.0
2017-Aug-08 22:30N 66°14' E 012°19'0 0.0
2017-Aug-08 22:00N 66°14' E 012°19'0 0.0
2017-Aug-08 21:30N 66°14' E 012°19'0 0.0
2017-Aug-08 21:00N 66°14' E 012°19'0 0.0
2017-Aug-08 20:30N 66°14' E 012°19'0 0.0
2017-Aug-08 20:00N 66°14' E 012°19'0 0.0
2017-Aug-08 19:30N 66°14' E 012°19'0 0.0
2017-Aug-08 19:00N 66°14' E 012°19'0 0.0
2017-Aug-08 18:30N 66°14' E 012°19'0 0.0
2017-Aug-08 18:00N 66°14' E 012°19'0 0.1
2017-Aug-08 17:30N 66°14' E 012°19'0 0.0
2017-Aug-08 17:00N 66°14' E 012°19'0 0.0
2017-Aug-08 16:30N 66°14' E 012°19'0 0.0
2017-Aug-08 16:00N 66°14' E 012°19'0 0.0
2017-Aug-08 15:30N 66°14' E 012°19'0 0.1
2017-Aug-08 15:00N 66°14' E 012°19'0 0.0
2017-Aug-08 14:30N 66°14' E 012°19'0 0.0
2017-Aug-08 14:00N 66°14' E 012°19'0 0.0
2017-Aug-08 13:30N 66°14' E 012°19'0 0.1
2017-Aug-08 13:00N 66°14' E 012°19'0 0.0
2017-Aug-08 12:30N 66°14' E 012°19'0 0.0
2017-Aug-08 11:59N 66°14' E 012°19'0 0.0
2017-Aug-08 11:30N 66°14' E 012°19'0 0.1
2017-Aug-08 11:00N 66°14' E 012°19'0 0.0
2017-Aug-08 10:30N 66°14' E 012°19'0 0.0
2017-Aug-08 10:00N 66°14' E 012°19'0 0.0
2017-Aug-08 09:30N 66°14' E 012°19'0 0.1
2017-Aug-08 08:59N 66°14' E 012°19'0 0.0
2017-Aug-08 08:29N 66°14' E 012°19'0 0.0
2017-Aug-08 08:00N 66°14' E 012°19'0 0.0
2017-Aug-08 07:30N 66°14' E 012°19'0 0.1
2017-Aug-08 07:00N 66°14' E 012°19'0 0.0
2017-Aug-08 06:30N 66°14' E 012°19'0 0.0
2017-Aug-08 06:00N 66°14' E 012°19'0 0.0
2017-Aug-08 05:30N 66°14' E 012°19'0 0.0
2017-Aug-08 05:00N 66°14' E 012°19'0 0.0
2017-Aug-08 04:30N 66°14' E 012°19'0 0.0
2017-Aug-08 04:00N 66°14' E 012°19'0 0.0
2017-Aug-08 03:29N 66°14' E 012°19'0 0.0
2017-Aug-08 02:59N 66°14' E 012°19'0 0.0
2017-Aug-08 02:30N 66°14' E 012°19'0 0.0
2017-Aug-08 02:00N 66°14' E 012°19'0 0.0
2017-Aug-08 01:30N 66°14' E 012°19'0 0.0
2017-Aug-08 01:00N 66°14' E 012°19'0 0.0
2017-Aug-08 00:30N 66°14' E 012°19'0 0.0
2017-Aug-08 00:00N 66°14' E 012°19'0 0.0
2017-Aug-07 23:30N 66°14' E 012°19'0 0.0
2017-Aug-07 23:00N 66°14' E 012°19'0 0.0
2017-Aug-07 22:30N 66°14' E 012°19'0 0.0
2017-Aug-07 21:59N 66°14' E 012°19'0 0.0
2017-Aug-07 21:30N 66°14' E 012°19'1 1.3
2017-Aug-07 21:00N 66°13' E 012°18'5 9.5
2017-Aug-07 20:30N 66°09' E 012°12'5 9.5
2017-Aug-07 20:00N 66°05' E 012°16'4 8.3
2017-Aug-07 19:29N 66°01' E 012°19'1 2.8
2017-Aug-07 19:00N 66°01' E 012°23'0 0.6
2017-Aug-07 18:30N 66°01' E 012°23'5 9.3
2017-Aug-07 18:00N 65°56' E 012°23'3 6.3
2017-Aug-07 17:30N 65°53' E 012°20'2 4.0
2017-Aug-07 17:00N 65°51' E 012°17'0 0.0
2017-Aug-07 16:30N 65°51' E 012°17'0 0.0
2017-Aug-07 16:00N 65°51' E 012°17'0 0.0
2017-Aug-07 15:30N 65°51' E 012°17'0 0.0
2017-Aug-07 15:00N 65°51' E 012°17'0 0.1
2017-Aug-07 14:30N 65°51' E 012°17'0 0.0
2017-Aug-07 14:00N 65°51' E 012°17'0 0.0
2017-Aug-07 13:29N 65°51' E 012°17'0 0.0
2017-Aug-07 12:58N 65°51' E 012°17'0 0.0
2017-Aug-07 12:30N 65°51' E 012°17'0 0.1
2017-Aug-07 12:00N 65°51' E 012°17'0 0.0
2017-Aug-07 11:30N 65°51' E 012°17'0 0.0
2017-Aug-07 10:58N 65°51' E 012°17'0 0.0
2017-Aug-07 10:30N 65°51' E 012°17'0 0.0
2017-Aug-07 10:00N 65°51' E 012°17'  
Track history (hours):
 
Tides and Currents Weather Stations Pressure Air Temp Water Temp Dewpoint Dewpoint Depression Visibility Wind Speed Wind Dir Waves Ship Positions

Fonvind

Last reported at 2017-Aug-17 09:30 UTC. Time now 2017-Aug-17 09:35 UTC.
Position N 65°54' E 012°13'.

Length 34 m; draft 3.5 m.

Type: Cargo ship. MMSI: 257322400.

Date/timePositionNaut miles runAvg speedWind from/ knotsBaromVisibWave heightAir tempDewpointWater temp
2017-Aug-17 09:30N 65°54' E 012°13'0 0.0
2017-Aug-17 09:00N 65°54' E 012°13'0 0.0
2017-Aug-17 08:30N 65°54' E 012°13'0 0.0
2017-Aug-17 08:00N 65°54' E 012°13'0 0.0
2017-Aug-17 07:30N 65°54' E 012°13'0 0.0
2017-Aug-17 07:00N 65°54' E 012°13'0 0.0
2017-Aug-17 06:29N 65°54' E 012°13'0 0.0
2017-Aug-17 06:00N 65°54' E 012°13'0 0.0
2017-Aug-17 05:30N 65°54' E 012°13'0 0.0
2017-Aug-17 05:00N 65°54' E 012°13'0 0.0
2017-Aug-17 04:30N 65°54' E 012°13'0 0.0
2017-Aug-17 04:00N 65°54' E 012°13'0 0.0
2017-Aug-17 03:30N 65°54' E 012°13'0 0.0
2017-Aug-17 03:00N 65°54' E 012°13'0 0.0
2017-Aug-17 02:30N 65°54' E 012°13'0 0.0
2017-Aug-17 02:00N 65°54' E 012°13'0 0.0
2017-Aug-17 01:30N 65°54' E 012°13'0 0.0
2017-Aug-17 01:00N 65°54' E 012°13'0 0.0
2017-Aug-17 00:29N 65°54' E 012°13'0 0.0
2017-Aug-17 00:00N 65°54' E 012°13'0 0.0
2017-Aug-16 23:30N 65°54' E 012°13'0 0.0
2017-Aug-16 22:59N 65°54' E 012°13'0 0.0
2017-Aug-16 22:30N 65°54' E 012°13'0 0.0
2017-Aug-16 22:00N 65°54' E 012°13'0 0.0
2017-Aug-16 21:30N 65°54' E 012°13'0 0.0
2017-Aug-16 21:00N 65°54' E 012°13'0 0.0
2017-Aug-16 20:30N 65°54' E 012°13'0 0.0
2017-Aug-16 20:00N 65°54' E 012°13'0 0.0
2017-Aug-16 19:30N 65°54' E 012°13'0 0.0
2017-Aug-16 19:00N 65°54' E 012°13'0 0.0
2017-Aug-16 18:30N 65°54' E 012°13'0 0.0
2017-Aug-16 18:00N 65°54' E 012°13'0 0.0
2017-Aug-16 17:30N 65°54' E 012°13'0 0.0
2017-Aug-16 17:00N 65°54' E 012°13'0 0.0
2017-Aug-16 16:30N 65°54' E 012°13'0 0.0
2017-Aug-16 16:00N 65°54' E 012°13'0 0.1
2017-Aug-16 15:30N 65°55' E 012°13'0 0.0
2017-Aug-16 15:00N 65°55' E 012°13'0 0.0
2017-Aug-16 14:30N 65°55' E 012°13'0 0.0
2017-Aug-16 14:00N 65°54' E 012°13'0 0.1
2017-Aug-16 13:30N 65°55' E 012°13'0 0.1
2017-Aug-16 13:00N 65°55' E 012°13'0 0.0
2017-Aug-16 12:30N 65°55' E 012°13'0 0.0
2017-Aug-16 12:00N 65°55' E 012°13'0 0.0
2017-Aug-16 11:30N 65°55' E 012°13'0 0.1
2017-Aug-16 11:00N 65°55' E 012°13'4 8.4
2017-Aug-16 10:30N 65°56' E 012°23'510.1
2017-Aug-16 09:58N 65°51' E 012°22'5 9.8
2017-Aug-16 09:30N 65°47' E 012°19'5 9.9
2017-Aug-16 09:00N 65°42' E 012°17'5 9.6
2017-Aug-16 08:30N 65°37' E 012°19'510.3
2017-Aug-16 08:00N 65°32' E 012°24'  
2017-Aug-14 02:59N 65°31' E 012°33'0 0.0
2017-Aug-14 02:30N 65°31' E 012°33'0 0.0
2017-Aug-14 02:00N 65°31' E 012°33'0 0.0
2017-Aug-14 01:30N 65°31' E 012°33'0 0.0
2017-Aug-14 01:00N 65°31' E 012°33'0 0.0
2017-Aug-14 00:30N 65°31' E 012°33'0 0.0
2017-Aug-14 00:00N 65°31' E 012°33'0 0.0
2017-Aug-13 23:30N 65°31' E 012°33'0 0.0
2017-Aug-13 23:00N 65°31' E 012°33'0 0.0
2017-Aug-13 22:30N 65°31' E 012°33'0 0.0
2017-Aug-13 22:00N 65°31' E 012°33'0 0.0
2017-Aug-13 21:30N 65°31' E 012°33'0 0.0
2017-Aug-13 21:00N 65°31' E 012°33'0 0.0
2017-Aug-13 20:30N 65°31' E 012°33'0 0.0
2017-Aug-13 20:00N 65°31' E 012°33'0 0.0
2017-Aug-13 19:30N 65°31' E 012°33'0 0.0
2017-Aug-13 19:00N 65°31' E 012°33'0 0.0
2017-Aug-13 18:30N 65°31' E 012°33'0 0.0
2017-Aug-13 18:00N 65°31' E 012°33'0 0.0
2017-Aug-13 17:30N 65°31' E 012°33'0 0.0
2017-Aug-13 17:00N 65°31' E 012°33'4 7.6
2017-Aug-13 16:30N 65°28' E 012°32'1 2.0
2017-Aug-13 16:00N 65°27' E 012°34'0 0.0
2017-Aug-13 15:30N 65°27' E 012°34'0 0.0
2017-Aug-13 15:00N 65°27' E 012°34'0 0.0
2017-Aug-13 14:30N 65°27' E 012°34'0 0.0
2017-Aug-13 14:00N 65°27' E 012°34'0 0.1
2017-Aug-13 13:29N 65°27' E 012°34'0 0.0
2017-Aug-13 13:00N 65°27' E 012°34'0 0.0
2017-Aug-13 12:30N 65°27' E 012°34'0 0.0
2017-Aug-13 12:00N 65°27' E 012°34'0 0.1
2017-Aug-13 11:30N 65°27' E 012°34'0 0.0
2017-Aug-13 11:00N 65°27' E 012°34'0 0.0
2017-Aug-13 10:30N 65°27' E 012°34'0 0.0
2017-Aug-13 10:00N 65°27' E 012°34'0 0.0
2017-Aug-13 09:30N 65°27' E 012°34'0 0.1
2017-Aug-13 09:00N 65°27' E 012°34'0 0.0
2017-Aug-13 08:30N 65°27' E 012°34'0 0.0
2017-Aug-13 08:00N 65°27' E 012°34'0 0.0
2017-Aug-13 07:30N 65°27' E 012°34'0 0.1
2017-Aug-13 07:00N 65°27' E 012°34'0 0.0
2017-Aug-13 06:30N 65°27' E 012°34'0 0.0
2017-Aug-13 06:00N 65°27' E 012°34'0 0.0
2017-Aug-13 05:30N 65°27' E 012°34'0 0.0
2017-Aug-13 05:00N 65°27' E 012°34'0 0.0
2017-Aug-13 04:30N 65°27' E 012°34'0 0.0
2017-Aug-13 04:00N 65°27' E 012°34'0 0.0
2017-Aug-13 03:30N 65°27' E 012°34'0 0.0
2017-Aug-13 02:59N 65°27' E 012°34'0 0.0
2017-Aug-13 02:30N 65°27' E 012°34'0 0.0
2017-Aug-13 02:00N 65°27' E 012°34'0 0.0
2017-Aug-13 01:30N 65°27' E 012°34'0 0.0
2017-Aug-13 01:00N 65°27' E 012°34'0 0.0
2017-Aug-13 00:30N 65°27' E 012°34'0 0.0
2017-Aug-13 00:00N 65°27' E 012°34'0 0.0
2017-Aug-12 23:30N 65°27' E 012°34'0 0.0
2017-Aug-12 23:00N 65°27' E 012°34'0 0.0
2017-Aug-12 22:29N 65°27' E 012°34'0 0.0
2017-Aug-12 22:00N 65°27' E 012°34'0 0.0
2017-Aug-12 21:30N 65°27' E 012°34'0 0.0
2017-Aug-12 21:00N 65°27' E 012°34'0 0.0
2017-Aug-12 20:30N 65°27' E 012°34'0 0.0
2017-Aug-12 20:00N 65°27' E 012°34'0 0.0
2017-Aug-12 19:30N 65°27' E 012°34'0 0.0
2017-Aug-12 18:59N 65°27' E 012°34'0 0.0
2017-Aug-12 18:30N 65°27' E 012°34'0 0.0
2017-Aug-12 18:00N 65°27' E 012°34'0 0.0
2017-Aug-12 17:30N 65°27' E 012°34'0 0.1
2017-Aug-12 17:00N 65°27' E 012°34'0 0.0
2017-Aug-12 16:30N 65°27' E 012°34'0 0.0
2017-Aug-12 16:00N 65°27' E 012°34'0 0.0
2017-Aug-12 15:30N 65°27' E 012°34'0 0.0
2017-Aug-12 15:00N 65°27' E 012°34'0 0.0
2017-Aug-12 14:29N 65°27' E 012°34'0 0.1
2017-Aug-12 14:00N 65°27' E 012°33'0 0.0
2017-Aug-12 13:30N 65°27' E 012°33'0 0.0
2017-Aug-12 13:00N 65°27' E 012°33'0 0.0
2017-Aug-12 12:30N 65°27' E 012°33'0 0.1
2017-Aug-12 12:00N 65°27' E 012°34'0 0.0
2017-Aug-12 11:30N 65°27' E 012°34'0 0.0
2017-Aug-12 11:00N 65°27' E 012°34'0 0.0
2017-Aug-12 10:30N 65°27' E 012°34'0 0.0
2017-Aug-12 10:00N 65°27' E 012°34'0 0.2
2017-Aug-12 09:30N 65°27' E 012°34'0 0.0
2017-Aug-12 08:59N 65°27' E 012°34'0 0.0
2017-Aug-12 08:30N 65°27' E 012°34'0 0.0
2017-Aug-12 08:00N 65°27' E 012°34'0 0.1
2017-Aug-12 07:30N 65°27' E 012°34'0 0.0
2017-Aug-12 07:00N 65°27' E 012°34'0 0.0
2017-Aug-12 06:30N 65°27' E 012°34'0 0.0
2017-Aug-12 06:00N 65°27' E 012°34'0 0.0
2017-Aug-12 05:30N 65°27' E 012°34'0 0.0
2017-Aug-12 05:00N 65°27' E 012°34'0 0.0
2017-Aug-12 04:30N 65°27' E 012°34'0 0.0
2017-Aug-12 04:00N 65°27' E 012°34'0 0.0
2017-Aug-12 03:30N 65°27' E 012°34'0 0.0
2017-Aug-12 03:00N 65°27' E 012°34'0 0.0
2017-Aug-12 02:30N 65°27' E 012°34'0 0.0
2017-Aug-12 01:59N 65°27' E 012°34'0 0.0
2017-Aug-12 01:30N 65°27' E 012°34'0 0.0
2017-Aug-12 01:00N 65°27' E 012°34'0 0.0
2017-Aug-12 00:30N 65°27' E 012°34'0 0.0
2017-Aug-12 00:00N 65°27' E 012°34'0 0.0
2017-Aug-11 23:30N 65°27' E 012°34'0 0.0
2017-Aug-11 23:00N 65°27' E 012°34'0 0.0
2017-Aug-11 22:29N 65°27' E 012°34'0 0.0
2017-Aug-11 22:00N 65°27' E 012°34'0 0.0
2017-Aug-11 21:30N 65°27' E 012°34'0 0.0
2017-Aug-11 21:00N 65°27' E 012°34'0 0.0
2017-Aug-11 20:30N 65°27' E 012°34'0 0.0
2017-Aug-11 20:00N 65°27' E 012°34'3 5.3
2017-Aug-11 19:29N 65°29' E 012°30'4 9.2
2017-Aug-11 19:00N 65°32' E 012°23'5 9.0
2017-Aug-11 18:30N 65°37' E 012°20'4 8.4
2017-Aug-11 18:00N 65°41' E 012°17'4 8.5
2017-Aug-11 17:30N 65°45' E 012°18'5 9.1
2017-Aug-11 17:00N 65°49' E 012°21'5 9.1
2017-Aug-11 16:30N 65°54' E 012°22'4 8.9
2017-Aug-11 16:00N 65°58' E 012°24'2 4.8
2017-Aug-11 15:30N 66°01' E 012°23'0 0.0
2017-Aug-11 15:00N 66°01' E 012°23'0 0.0
2017-Aug-11 14:00N 66°01' E 012°23'0 0.0
2017-Aug-11 13:30N 66°01' E 012°23'0 0.0
2017-Aug-11 13:00N 66°01' E 012°23'2 4.4
2017-Aug-11 12:30N 66°02' E 012°18'4 8.8
2017-Aug-11 11:59N 66°06' E 012°15'4 8.4
2017-Aug-11 11:30N 66°10' E 012°16'3 5.7
2017-Aug-11 11:00N 66°13' E 012°17'1 2.0
2017-Aug-11 10:30N 66°14' E 012°17'0 0.0
2017-Aug-11 10:00N 66°14' E 012°17'0 0.0
2017-Aug-11 09:30N 66°14' E 012°17'0 0.0
2017-Aug-11 09:00N 66°14' E 012°17'0 0.0
2017-Aug-11 08:30N 66°14' E 012°17'0 0.0
2017-Aug-11 08:00N 66°14' E 012°17'0 0.1
2017-Aug-11 07:30N 66°14' E 012°17'0 0.2
2017-Aug-11 07:00N 66°14' E 012°17'0 0.0
2017-Aug-11 06:30N 66°14' E 012°17'0 0.0
2017-Aug-11 06:00N 66°14' E 012°17'0 0.0
2017-Aug-11 05:29N 66°14' E 012°17'0 0.1
2017-Aug-11 05:00N 66°14' E 012°17'0 0.2
2017-Aug-11 04:30N 66°14' E 012°17'0 0.0
2017-Aug-11 04:00N 66°14' E 012°17'0 0.0
2017-Aug-11 03:30N 66°14' E 012°17'0 0.0
2017-Aug-11 03:00N 66°14' E 012°17'0 0.0
2017-Aug-11 02:30N 66°14' E 012°17'0 0.0
2017-Aug-11 02:00N 66°14' E 012°17'0 0.0
2017-Aug-11 01:30N 66°14' E 012°17'0 0.0
2017-Aug-11 01:00N 66°14' E 012°17'0 0.0
2017-Aug-11 00:30N 66°14' E 012°17'0 0.0
2017-Aug-11 00:00N 66°14' E 012°17'0 0.0
2017-Aug-10 23:30N 66°14' E 012°17'0 0.0
2017-Aug-10 23:00N 66°14' E 012°17'0 0.0
2017-Aug-10 22:30N 66°14' E 012°17'0 0.0
2017-Aug-10 22:00N 66°14' E 012°17'0 0.0
2017-Aug-10 21:30N 66°14' E 012°17'0 0.0
2017-Aug-10 21:00N 66°14' E 012°17'0 0.0
2017-Aug-10 20:30N 66°14' E 012°17'0 0.0
2017-Aug-10 20:00N 66°14' E 012°17'0 0.0
2017-Aug-10 19:30N 66°14' E 012°17'0 0.0
2017-Aug-10 19:00N 66°14' E 012°17'0 0.0
2017-Aug-10 18:30N 66°14' E 012°17'0 0.0
2017-Aug-10 17:59N 66°14' E 012°17'0 0.0
2017-Aug-10 17:30N 66°14' E 012°17'0 0.0
2017-Aug-10 17:00N 66°14' E 012°17'0 0.2
2017-Aug-10 16:30N 66°14' E 012°17'0 0.0
2017-Aug-10 16:00N 66°14' E 012°17'0 0.0
2017-Aug-10 15:30N 66°14' E 012°17'0 0.0
2017-Aug-10 15:00N 66°14' E 012°17'0 0.0
2017-Aug-10 14:30N 66°14' E 012°17'0 0.0
2017-Aug-10 13:30N 66°14' E 012°17'0 0.0
2017-Aug-10 13:00N 66°14' E 012°17'0 0.0
2017-Aug-10 12:30N 66°14' E 012°17'0 0.0
2017-Aug-10 12:00N 66°14' E 012°17'0 0.1
2017-Aug-10 11:30N 66°14' E 012°17'0 0.0
2017-Aug-10 11:00N 66°14' E 012°17'0 0.0
2017-Aug-10 10:30N 66°14' E 012°17'0 0.0
2017-Aug-10 10:00N 66°14' E 012°17'1 1.6
2017-Aug-10 09:30N 66°14' E 012°19'0 0.2
2017-Aug-10 09:00N 66°14' E 012°19'0 0.0
2017-Aug-10 08:30N 66°14' E 012°19'0 0.0
2017-Aug-10 08:00N 66°14' E 012°19'0 0.0
2017-Aug-10 07:30N 66°14' E 012°19'0 0.1
2017-Aug-10 07:00N 66°14' E 012°19'0 0.0
2017-Aug-10 06:30N 66°14' E 012°19'0 0.0
2017-Aug-10 06:00N 66°14' E 012°19'0 0.0
2017-Aug-10 05:30N 66°14' E 012°19'0 0.0
2017-Aug-10 05:00N 66°14' E 012°19'0 0.0
2017-Aug-10 04:30N 66°14' E 012°19'0 0.0
2017-Aug-10 04:00N 66°14' E 012°19'0 0.0
2017-Aug-10 03:30N 66°14' E 012°19'0 0.0
2017-Aug-10 03:00N 66°14' E 012°19'0 0.0
2017-Aug-10 02:30N 66°14' E 012°19'0 0.0
2017-Aug-10 02:00N 66°14' E 012°19'0 0.0
2017-Aug-10 01:30N 66°14' E 012°19'0 0.0
2017-Aug-10 01:00N 66°14' E 012°19'0 0.0
2017-Aug-10 00:30N 66°14' E 012°19'0 0.0
2017-Aug-10 00:00N 66°14' E 012°19'0 0.0
2017-Aug-09 23:30N 66°14' E 012°19'0 0.0
2017-Aug-09 23:00N 66°14' E 012°19'0 0.0
2017-Aug-09 22:30N 66°14' E 012°19'0 0.0
2017-Aug-09 22:00N 66°14' E 012°19'0 0.0
2017-Aug-09 21:30N 66°14' E 012°19'0 0.0
2017-Aug-09 21:00N 66°14' E 012°19'0 0.0
2017-Aug-09 20:30N 66°14' E 012°19'0 0.0
2017-Aug-09 20:00N 66°14' E 012°19'0 0.0
2017-Aug-09 19:30N 66°14' E 012°19'0 0.0
2017-Aug-09 19:00N 66°14' E 012°19'0 0.0
2017-Aug-09 18:30N 66°14' E 012°19'0 0.1
2017-Aug-09 18:00N 66°14' E 012°19'0 0.0
2017-Aug-09 17:30N 66°14' E 012°19'0 0.0
2017-Aug-09 17:00N 66°14' E 012°19'0 0.0
2017-Aug-09 16:30N 66°14' E 012°19'0 0.1
2017-Aug-09 16:00N 66°14' E 012°19'0 0.0
2017-Aug-09 15:30N 66°14' E 012°19'0 0.0
2017-Aug-09 15:00N 66°14' E 012°19'0 0.0
2017-Aug-09 14:30N 66°14' E 012°19'0 0.0
2017-Aug-09 14:00N 66°14' E 012°19'0 0.1
2017-Aug-09 13:30N 66°14' E 012°19'0 0.0
2017-Aug-09 12:59N 66°14' E 012°19'0 0.0
2017-Aug-09 12:30N 66°14' E 012°19'0 0.0
2017-Aug-09 12:00N 66°14' E 012°19'0 0.1
2017-Aug-09 11:30N 66°14' E 012°19'0 0.0
2017-Aug-09 11:00N 66°14' E 012°19'0 0.0
2017-Aug-09 10:30N 66°14' E 012°19'0 0.0
2017-Aug-09 10:00N 66°14' E 012°19'0 0.0
2017-Aug-09 09:30N 66°14' E 012°19'0 0.1
2017-Aug-09 09:00N 66°14' E 012°19'0 0.0
2017-Aug-09 08:30N 66°14' E 012°19'0 0.0
2017-Aug-09 08:00N 66°14' E 012°19'0 0.0
2017-Aug-09 07:30N 66°14' E 012°19'0 0.0
2017-Aug-09 07:00N 66°14' E 012°19'0 0.1
2017-Aug-09 06:30N 66°14' E 012°19'0 0.0
2017-Aug-09 06:00N 66°14' E 012°19'0 0.0
2017-Aug-09 05:30N 66°14' E 012°19'0 0.0
2017-Aug-09 05:00N 66°14' E 012°19'0 0.0
2017-Aug-09 04:30N 66°14' E 012°19'0 0.0
2017-Aug-09 04:00N 66°14' E 012°19'0 0.0
2017-Aug-09 03:30N 66°14' E 012°19'0 0.0
2017-Aug-09 03:00N 66°14' E 012°19'0 0.0
2017-Aug-09 02:30N 66°14' E 012°19'0 0.0
2017-Aug-09 02:00N 66°14' E 012°19'0 0.0
2017-Aug-09 01:30N 66°14' E 012°19'0 0.0
2017-Aug-09 00:59N 66°14' E 012°19'0 0.0
2017-Aug-09 00:30N 66°14' E 012°19'0 0.0
2017-Aug-09 00:00N 66°14' E 012°19'0 0.0
2017-Aug-08 23:30N 66°14' E 012°19'0 0.0
2017-Aug-08 23:00N 66°14' E 012°19'0 0.0
2017-Aug-08 22:30N 66°14' E 012°19'0 0.0
2017-Aug-08 22:00N 66°14' E 012°19'0 0.0
2017-Aug-08 21:30N 66°14' E 012°19'0 0.0
2017-Aug-08 21:00N 66°14' E 012°19'0 0.0
2017-Aug-08 20:30N 66°14' E 012°19'0 0.0
2017-Aug-08 20:00N 66°14' E 012°19'0 0.0
2017-Aug-08 19:30N 66°14' E 012°19'0 0.0
2017-Aug-08 19:00N 66°14' E 012°19'0 0.0
2017-Aug-08 18:30N 66°14' E 012°19'0 0.0
2017-Aug-08 18:00N 66°14' E 012°19'0 0.1
2017-Aug-08 17:30N 66°14' E 012°19'0 0.0
2017-Aug-08 17:00N 66°14' E 012°19'0 0.0
2017-Aug-08 16:30N 66°14' E 012°19'0 0.0
2017-Aug-08 16:00N 66°14' E 012°19'0 0.0
2017-Aug-08 15:30N 66°14' E 012°19'0 0.1
2017-Aug-08 15:00N 66°14' E 012°19'0 0.0
2017-Aug-08 14:30N 66°14' E 012°19'0 0.0
2017-Aug-08 14:00N 66°14' E 012°19'0 0.0
2017-Aug-08 13:30N 66°14' E 012°19'0 0.1
2017-Aug-08 13:00N 66°14' E 012°19'0 0.0
2017-Aug-08 12:30N 66°14' E 012°19'0 0.0
2017-Aug-08 11:59N 66°14' E 012°19'0 0.0
2017-Aug-08 11:30N 66°14' E 012°19'0 0.1
2017-Aug-08 11:00N 66°14' E 012°19'0 0.0
2017-Aug-08 10:30N 66°14' E 012°19'0 0.0
2017-Aug-08 10:00N 66°14' E 012°19'0 0.0
2017-Aug-08 09:30N 66°14' E 012°19'0 0.1
2017-Aug-08 08:59N 66°14' E 012°19'0 0.0
2017-Aug-08 08:29N 66°14' E 012°19'0 0.0
2017-Aug-08 08:00N 66°14' E 012°19'0 0.0
2017-Aug-08 07:30N 66°14' E 012°19'0 0.1
2017-Aug-08 07:00N 66°14' E 012°19'0 0.0
2017-Aug-08 06:30N 66°14' E 012°19'0 0.0
2017-Aug-08 06:00N 66°14' E 012°19'0 0.0
2017-Aug-08 05:30N 66°14' E 012°19'0 0.0
2017-Aug-08 05:00N 66°14' E 012°19'0 0.0
2017-Aug-08 04:30N 66°14' E 012°19'0 0.0
2017-Aug-08 04:00N 66°14' E 012°19'0 0.0
2017-Aug-08 03:29N 66°14' E 012°19'0 0.0
2017-Aug-08 02:59N 66°14' E 012°19'0 0.0
2017-Aug-08 02:30N 66°14' E 012°19'0 0.0
2017-Aug-08 02:00N 66°14' E 012°19'0 0.0
2017-Aug-08 01:30N 66°14' E 012°19'0 0.0
2017-Aug-08 01:00N 66°14' E 012°19'0 0.0
2017-Aug-08 00:30N 66°14' E 012°19'0 0.0
2017-Aug-08 00:00N 66°14' E 012°19'0 0.0
2017-Aug-07 23:30N 66°14' E 012°19'0 0.0
2017-Aug-07 23:00N 66°14' E 012°19'0 0.0
2017-Aug-07 22:30N 66°14' E 012°19'0 0.0
2017-Aug-07 21:59N 66°14' E 012°19'0 0.0
2017-Aug-07 21:30N 66°14' E 012°19'1 1.3
2017-Aug-07 21:00N 66°13' E 012°18'5 9.5
2017-Aug-07 20:30N 66°09' E 012°12'5 9.5
2017-Aug-07 20:00N 66°05' E 012°16'4 8.3
2017-Aug-07 19:29N 66°01' E 012°19'1 2.8
2017-Aug-07 19:00N 66°01' E 012°23'0 0.6
2017-Aug-07 18:30N 66°01' E 012°23'5 9.3
2017-Aug-07 18:00N 65°56' E 012°23'3 6.3
2017-Aug-07 17:30N 65°53' E 012°20'2 4.0
2017-Aug-07 17:00N 65°51' E 012°17'0 0.0
2017-Aug-07 16:30N 65°51' E 012°17'0 0.0
2017-Aug-07 16:00N 65°51' E 012°17'0 0.0
2017-Aug-07 15:30N 65°51' E 012°17'0 0.0
2017-Aug-07 15:00N 65°51' E 012°17'0 0.1
2017-Aug-07 14:30N 65°51' E 012°17'0 0.0
2017-Aug-07 14:00N 65°51' E 012°17'0 0.0
2017-Aug-07 13:29N 65°51' E 012°17'0 0.0
2017-Aug-07 12:58N 65°51' E 012°17'0 0.0
2017-Aug-07 12:30N 65°51' E 012°17'0 0.1
2017-Aug-07 12:00N 65°51' E 012°17'0 0.0
2017-Aug-07 11:30N 65°51' E 012°17'0 0.0
2017-Aug-07 10:58N 65°51' E 012°17'0 0.0
2017-Aug-07 10:30N 65°51' E 012°17'0 0.0
2017-Aug-07 10:00N 65°51' E 012°17'  

Dump ship's entire track history